Time;durP1;ratioP1;P1;durP2;ratioP2;P2;SDS_P1;SDS_P2;PMS_P1;PMS_P2;Temp;Humidity;BMP_temperature;BMP_pressure;BME280_temperature;BME280_humidity;BME280_pressure;Samples;Min_cycle;Max_cycle;Signal;HPM_P1;HPM_P2
2024/03/06 00:00:17;;;;;;;21.27;18.08;;;;;;;;;;5072757;28;20315;-75
2024/03/06 00:02:44;;;;;;;23.17;17.67;;;;;;;;;;5072779;28;20275;-75
2024/03/06 00:05:13;;;;;;;21.90;17.40;;;;;;;;;;5072672;28;20186;-75
2024/03/06 00:07:40;;;;;;;24.70;18.30;;;;;;;;;;5072596;28;20209;-75
2024/03/06 00:10:08;;;;;;;22.67;18.08;;;;;;;;;;5072525;28;20280;-74
2024/03/06 00:12:35;;;;;;;25.58;19.08;;;;;;;;;;5072676;28;20189;-75
2024/03/06 00:15:03;;;;;;;22.15;17.48;;;;;;;;;;5072632;28;20216;-75
2024/03/06 00:17:30;;;;;;;24.33;18.90;;;;;;;;;;5072487;28;20193;-75
2024/03/06 00:19:57;;;;;;;24.95;18.38;;;;;;;;;;5072470;28;20284;-75
2024/03/06 00:22:25;;;;;;;25.40;18.70;;;;;;;;;;5072401;28;20276;-75
2024/03/06 00:24:53;;;;;;;23.27;18.33;;;;;;;;;;5072568;28;20703;-75
2024/03/06 00:27:20;;;;;;;28.23;19.63;;;;;;;;;;5072468;28;20303;-75
2024/03/06 00:29:47;;;;;;;23.05;18.73;;;;;;;;;;5073073;28;20190;-75
2024/03/06 00:32:14;;;;;;;23.67;18.38;;;;;;;;;;5076152;28;20276;-75
2024/03/06 00:34:41;;;;;;;23.23;17.98;;;;;;;;;;5076009;28;20280;-75
2024/03/06 00:37:07;;;;;;;25.13;20.17;;;;;;;;;;5075911;28;20212;-75
2024/03/06 00:39:36;;;;;;;30.92;20.52;;;;;;;;;;5076074;28;20608;-75
2024/03/06 00:42:03;;;;;;;27.23;20.65;;;;;;;;;;5076030;28;20597;-75
2024/03/06 00:44:30;;;;;;;23.55;19.50;;;;;;;;;;5075896;28;20277;-75
2024/03/06 00:46:57;;;;;;;25.60;20.05;;;;;;;;;;5075739;28;20225;-75
2024/03/06 00:49:24;;;;;;;27.80;21.00;;;;;;;;;;5075775;28;20295;-75
2024/03/06 00:51:51;;;;;;;34.20;20.00;;;;;;;;;;5075615;28;20640;-75
2024/03/06 00:54:18;;;;;;;27.85;19.88;;;;;;;;;;5075659;28;20326;-75
2024/03/06 00:56:46;;;;;;;31.33;22.42;;;;;;;;;;5075609;28;20284;-75
2024/03/06 00:59:13;;;;;;;29.10;22.85;;;;;;;;;;5075606;28;20231;-75
2024/03/06 01:01:41;;;;;;;25.40;20.30;;;;;;;;;;5075569;28;20190;-74
2024/03/06 01:04:08;;;;;;;25.50;21.02;;;;;;;;;;5075478;28;20612;-75
2024/03/06 01:06:34;;;;;;;30.52;22.23;;;;;;;;;;5075493;28;20717;-75
2024/03/06 01:09:02;;;;;;;27.45;20.27;;;;;;;;;;5075535;28;20319;-74
2024/03/06 01:11:29;;;;;;;24.80;19.55;;;;;;;;;;5075463;28;20232;-75
2024/03/06 01:13:57;;;;;;;25.05;19.63;;;;;;;;;;5075424;28;20575;-75
2024/03/06 01:16:24;;;;;;;27.13;20.73;;;;;;;;;;5075978;28;20196;-75
2024/03/06 01:18:51;;;;;;;26.10;19.77;;;;;;;;;;5075136;28;20636;-75
2024/03/06 01:21:18;;;;;;;28.15;21.77;;;;;;;;;;5075347;28;20189;-75
2024/03/06 01:23:45;;;;;;;30.52;21.70;;;;;;;;;;5075290;28;20284;-75
2024/03/06 01:26:12;;;;;;;27.45;21.23;;;;;;;;;;5075200;28;20221;-74
2024/03/06 01:28:39;;;;;;;29.30;21.83;;;;;;;;;;5074982;28;20217;-74
2024/03/06 01:31:07;;;;;;;25.67;21.90;;;;;;;;;;5075038;28;20615;-74
2024/03/06 01:33:34;;;;;;;30.17;22.10;;;;;;;;;;5075243;28;20568;-75
2024/03/06 01:36:01;;;;;;;28.85;21.30;;;;;;;;;;5075229;28;20189;-74
2024/03/06 01:38:28;;;;;;;29.85;21.73;;;;;;;;;;5075158;28;20549;-74
2024/03/06 01:40:55;;;;;;;32.55;22.02;;;;;;;;;;5074535;28;20624;-74
2024/03/06 01:43:22;;;;;;;28.65;20.90;;;;;;;;;;5075067;28;20196;-74
2024/03/06 01:45:49;;;;;;;30.08;21.35;;;;;;;;;;5074603;28;20197;-74
2024/03/06 01:48:18;;;;;;;24.60;19.90;;;;;;;;;;5074573;28;20217;-74
2024/03/06 01:50:46;;;;;;;27.98;21.17;;;;;;;;;;5074794;28;20193;-74
2024/03/06 01:53:13;;;;;;;30.50;21.20;;;;;;;;;;5074622;28;20288;-74
2024/03/06 01:55:40;;;;;;;25.15;20.13;;;;;;;;;;5074551;28;20193;-74
2024/03/06 01:58:07;;;;;;;28.45;21.15;;;;;;;;;;5074452;28;20605;-75
2024/03/06 02:00:35;;;;;;;26.92;20.02;;;;;;;;;;5074394;28;20644;-75
2024/03/06 02:03:02;;;;;;;28.63;20.92;;;;;;;;;;5074491;28;20644;-74
2024/03/06 02:05:31;;;;;;;24.45;18.48;;;;;;;;;;5074627;28;20192;-74
2024/03/06 02:07:59;;;;;;;29.55;21.70;;;;;;;;;;5074172;28;20695;-74
2024/03/06 02:10:27;;;;;;;34.15;20.77;;;;;;;;;;5074244;28;20197;-75
2024/03/06 02:12:54;;;;;;;26.77;20.10;;;;;;;;;;5074376;28;20200;-74
2024/03/06 02:15:21;;;;;;;27.52;20.27;;;;;;;;;;5074007;28;20192;-74
2024/03/06 02:17:48;;;;;;;25.75;20.17;;;;;;;;;;5074247;28;20280;-74
2024/03/06 02:20:15;;;;;;;23.55;18.88;;;;;;;;;;5074133;28;20275;-75
2024/03/06 02:22:44;;;;;;;25.63;19.58;;;;;;;;;;5073922;28;20653;-74
2024/03/06 02:25:11;;;;;;;24.95;20.38;;;;;;;;;;5073855;28;20221;-75
2024/03/06 02:27:38;;;;;;;25.50;19.70;;;;;;;;;;5073687;28;20284;-74
2024/03/06 02:30:06;;;;;;;29.15;19.88;;;;;;;;;;5074007;28;20193;-74
2024/03/06 02:32:33;;;;;;;27.40;20.90;;;;;;;;;;5074079;28;20185;-75
2024/03/06 02:34:59;;;;;;;27.58;19.00;;;;;;;;;;5073877;28;20292;-74
2024/03/06 02:37:26;;;;;;;29.23;20.45;;;;;;;;;;5073729;28;20280;-75
2024/03/06 02:39:55;;;;;;;24.45;18.63;;;;;;;;;;5073414;28;20316;-74
2024/03/06 02:42:22;;;;;;;26.40;20.20;;;;;;;;;;5073777;28;20272;-74
2024/03/06 02:44:49;;;;;;;25.73;18.75;;;;;;;;;;5073708;28;20186;-74
2024/03/06 02:47:15;;;;;;;26.05;18.60;;;;;;;;;;5073926;28;20284;-75
2024/03/06 02:49:42;;;;;;;23.23;19.65;;;;;;;;;;5073442;28;20358;-74
2024/03/06 02:52:09;;;;;;;25.10;19.58;;;;;;;;;;5073180;28;20648;-74
2024/03/06 02:54:36;;;;;;;28.13;20.23;;;;;;;;;;5073105;28;20190;-74
2024/03/06 02:57:05;;;;;;;23.58;19.67;;;;;;;;;;5073691;28;20194;-74
2024/03/06 02:59:32;;;;;;;29.08;19.95;;;;;;;;;;5073446;28;20199;-74
2024/03/06 03:02:00;;;;;;;23.00;18.75;;;;;;;;;;5073403;28;20193;-74
2024/03/06 03:04:27;;;;;;;27.88;19.83;;;;;;;;;;5073299;28;20199;-74
2024/03/06 03:06:54;;;;;;;22.23;19.00;;;;;;;;;;5073142;28;20189;-75
2024/03/06 03:09:20;;;;;;;22.50;17.70;;;;;;;;;;5072997;28;20327;-74
2024/03/06 03:11:47;;;;;;;26.85;18.42;;;;;;;;;;5073543;28;20193;-75
2024/03/06 03:14:16;;;;;;;25.98;17.35;;;;;;;;;;5073263;28;20223;-74
2024/03/06 03:16:43;;;;;;;27.42;19.55;;;;;;;;;;5073082;28;20276;-74
2024/03/06 03:19:10;;;;;;;27.42;19.15;;;;;;;;;;5073089;28;20197;-74
2024/03/06 03:21:37;;;;;;;22.75;17.70;;;;;;;;;;5072905;28;20307;-74
2024/03/06 03:24:04;;;;;;;27.83;19.48;;;;;;;;;;5073194;28;20188;-74
2024/03/06 03:26:31;;;;;;;27.02;19.48;;;;;;;;;;5073134;28;20256;-74
2024/03/06 03:28:59;;;;;;;25.95;18.85;;;;;;;;;;5073089;28;20282;-75
2024/03/06 03:31:27;;;;;;;30.45;22.35;;;;;;;;;;5072962;28;20189;-74
2024/03/06 03:33:54;;;;;;;25.02;18.85;;;;;;;;;;5072873;28;20221;-75
2024/03/06 03:36:21;;;;;;;26.00;18.83;;;;;;;;;;5072796;28;20217;-74
2024/03/06 03:38:48;;;;;;;22.90;17.63;;;;;;;;;;5072807;28;20280;-74
2024/03/06 03:41:16;;;;;;;25.60;17.08;;;;;;;;;;5072919;28;20280;-74
2024/03/06 03:43:43;;;;;;;22.83;17.60;;;;;;;;;;5072868;28;20238;-74
2024/03/06 03:46:10;;;;;;;29.23;17.83;;;;;;;;;;5073137;28;20193;-74
2024/03/06 03:48:38;;;;;;;24.77;17.73;;;;;;;;;;5072766;28;20219;-74
2024/03/06 03:51:06;;;;;;;20.95;17.48;;;;;;;;;;5072941;28;20193;-74
2024/03/06 03:53:33;;;;;;;28.90;17.88;;;;;;;;;;5072892;28;20189;-74
2024/03/06 03:56:00;;;;;;;23.17;18.13;;;;;;;;;;5073072;28;20193;-74
2024/03/06 03:58:27;;;;;;;23.65;18.65;;;;;;;;;;5072839;28;20189;-74
2024/03/06 04:00:55;;;;;;;24.15;17.17;;;;;;;;;;5072590;28;20185;-74
2024/03/06 04:03:22;;;;;;;26.98;19.17;;;;;;;;;;5072535;28;20189;-74
2024/03/06 04:05:50;;;;;;;24.65;18.13;;;;;;;;;;5075091;28;20193;-74
2024/03/06 04:08:17;;;;;;;24.90;17.75;;;;;;;;;;5076613;28;20280;-74
2024/03/06 04:10:45;;;;;;;23.45;16.85;;;;;;;;;;5076847;28;20280;-74
2024/03/06 04:13:12;;;;;;;20.85;16.40;;;;;;;;;;5076584;28;20189;-74
2024/03/06 04:15:39;;;;;;;23.67;18.25;;;;;;;;;;5076728;28;20204;-74
2024/03/06 04:18:06;;;;;;;25.85;17.52;;;;;;;;;;5076325;28;20261;-74
2024/03/06 04:20:34;;;;;;;22.60;17.27;;;;;;;;;;5076483;28;20225;-74
2024/03/06 04:23:02;;;;;;;24.35;17.67;;;;;;;;;;5076407;28;20258;-74
2024/03/06 04:25:29;;;;;;;20.67;16.90;;;;;;;;;;5076374;28;20603;-74
2024/03/06 04:27:56;;;;;;;25.08;17.67;;;;;;;;;;5076245;28;20322;-74
2024/03/06 04:30:24;;;;;;;23.83;17.58;;;;;;;;;;5076024;28;20383;-74
2024/03/06 04:32:51;;;;;;;27.02;17.13;;;;;;;;;;5076195;28;20229;-74
2024/03/06 04:35:18;;;;;;;22.98;17.48;;;;;;;;;;5076210;28;20189;-74
2024/03/06 04:37:45;;;;;;;21.23;15.75;;;;;;;;;;5076015;28;20284;-74
2024/03/06 04:40:17;;;;;;;24.42;18.27;;;;;;;;;;5075792;28;20565;-74
2024/03/06 04:42:46;;;;;;;22.48;17.88;;;;;;;;;;5075907;28;20231;-74
2024/03/06 04:45:15;;;;;;;29.42;17.38;;;;;;;;;;5075901;28;20189;-74
2024/03/06 04:47:43;;;;;;;22.10;15.32;;;;;;;;;;5076065;28;20189;-74
2024/03/06 04:50:10;;;;;;;23.15;17.35;;;;;;;;;;5075825;28;20221;-74
2024/03/06 04:52:38;;;;;;;20.88;16.35;;;;;;;;;;5075747;28;20200;-74
2024/03/06 04:55:05;;;;;;;22.17;17.05;;;;;;;;;;5075683;28;20276;-74
2024/03/06 04:57:33;;;;;;;22.45;16.50;;;;;;;;;;5075564;28;20193;-74
2024/03/06 05:00:02;;;;;;;20.80;15.80;;;;;;;;;;5075762;28;20634;-74
2024/03/06 05:02:29;;;;;;;26.00;16.85;;;;;;;;;;5075546;28;20194;-74
2024/03/06 05:04:56;;;;;;;20.67;16.15;;;;;;;;;;5075524;28;20277;-74
2024/03/06 05:07:23;;;;;;;21.25;16.00;;;;;;;;;;5075734;28;20195;-74
2024/03/06 05:09:50;;;;;;;26.60;16.20;;;;;;;;;;5075326;28;20217;-74
2024/03/06 05:12:17;;;;;;;23.60;16.10;;;;;;;;;;5075278;28;20276;-74
2024/03/06 05:14:45;;;;;;;20.85;16.02;;;;;;;;;;5075624;28;20331;-74
2024/03/06 05:17:12;;;;;;;20.13;15.90;;;;;;;;;;5074834;28;20604;-74
2024/03/06 05:19:39;;;;;;;21.40;16.50;;;;;;;;;;5075277;28;20272;-74
2024/03/06 05:22:06;;;;;;;29.00;17.63;;;;;;;;;;5075124;28;20229;-74
2024/03/06 05:24:33;;;;;;;23.60;16.42;;;;;;;;;;5075260;28;20720;-74
2024/03/06 05:27:00;;;;;;;30.83;20.83;;;;;;;;;;5075237;28;20193;-74
2024/03/06 05:29:27;;;;;;;28.40;16.65;;;;;;;;;;5075080;28;20217;-74
2024/03/06 05:31:55;;;;;;;19.08;15.43;;;;;;;;;;5075054;28;20358;-74
2024/03/06 05:34:22;;;;;;;21.25;17.05;;;;;;;;;;5075101;28;20224;-74
2024/03/06 05:36:49;;;;;;;21.95;16.52;;;;;;;;;;5074987;28;20193;-74
2024/03/06 05:39:17;;;;;;;21.35;16.70;;;;;;;;;;5074697;28;20282;-74
2024/03/06 05:41:44;;;;;;;19.00;15.55;;;;;;;;;;5075105;28;20660;-74
2024/03/06 05:44:12;;;;;;;21.58;17.10;;;;;;;;;;5074810;28;20553;-73
2024/03/06 05:46:39;;;;;;;21.85;17.25;;;;;;;;;;5074778;28;20196;-74
2024/03/06 05:49:07;;;;;;;26.05;18.70;;;;;;;;;;5074546;28;20217;-74
2024/03/06 05:51:34;;;;;;;29.48;17.27;;;;;;;;;;5074770;28;20192;-74
2024/03/06 05:54:01;;;;;;;20.75;15.98;;;;;;;;;;5074526;28;20201;-74
2024/03/06 05:56:28;;;;;;;26.35;16.30;;;;;;;;;;5074685;28;20625;-74
2024/03/06 05:58:55;;;;;;;21.45;15.25;;;;;;;;;;5074531;28;20193;-74
2024/03/06 06:01:22;;;;;;;26.02;15.57;;;;;;;;;;5074166;28;20784;-74
2024/03/06 06:03:49;;;;;;;22.35;16.30;;;;;;;;;;5074280;28;20189;-74
2024/03/06 06:06:19;;;;;;;22.20;15.82;;;;;;;;;;5074196;28;20185;-74
2024/03/06 06:08:46;;;;;;;22.90;16.73;;;;;;;;;;5074579;28;20288;-74
2024/03/06 06:11:13;;;;;;;25.20;17.10;;;;;;;;;;5074166;28;20625;-73
2024/03/06 06:13:40;;;;;;;30.05;17.55;;;;;;;;;;5074125;28;20228;-73
2024/03/06 06:16:07;;;;;;;23.27;15.90;;;;;;;;;;5074066;28;20243;-73
2024/03/06 06:18:34;;;;;;;23.48;16.65;;;;;;;;;;5074022;28;20276;-73
2024/03/06 06:21:01;;;;;;;25.48;16.90;;;;;;;;;;5073755;28;20451;-73
2024/03/06 06:23:29;;;;;;;23.88;16.55;;;;;;;;;;5074266;28;20197;-73
2024/03/06 06:25:56;;;;;;;29.83;20.38;;;;;;;;;;5073821;28;20185;-73
2024/03/06 06:28:24;;;;;;;24.50;17.25;;;;;;;;;;5072839;28;20186;-74
2024/03/06 06:30:52;;;;;;;23.95;17.38;;;;;;;;;;5073723;28;20576;-73
2024/03/06 06:33:19;;;;;;;27.65;15.55;;;;;;;;;;5073554;28;20600;-73
2024/03/06 06:35:46;;;;;;;22.98;17.17;;;;;;;;;;5073789;28;20189;-73
2024/03/06 06:38:13;;;;;;;22.42;16.85;;;;;;;;;;5073737;28;20276;-73
2024/03/06 06:40:41;;;;;;;25.90;17.58;;;;;;;;;;5073574;28;20315;-73
2024/03/06 06:43:08;;;;;;;27.08;16.25;;;;;;;;;;5073599;28;20228;-73
2024/03/06 06:45:37;;;;;;;20.92;15.85;;;;;;;;;;5073421;28;20307;-73
2024/03/06 06:48:04;;;;;;;23.45;17.35;;;;;;;;;;5073311;28;20189;-73
2024/03/06 06:50:33;;;;;;;26.10;17.45;;;;;;;;;;5073417;28;20307;-73
2024/03/06 06:53:00;;;;;;;26.33;16.42;;;;;;;;;;5073276;28;20737;-73
2024/03/06 06:55:27;;;;;;;27.15;17.50;;;;;;;;;;5073358;28;20360;-74
2024/03/06 06:57:56;;;;;;;24.80;17.20;;;;;;;;;;5073307;28;20603;-74
2024/03/06 07:00:25;;;;;;;22.95;16.77;;;;;;;;;;5073172;28;20189;-74
2024/03/06 07:02:52;;;;;;;26.70;17.08;;;;;;;;;;5073298;28;20189;-75
2024/03/06 07:05:18;;;;;;;26.58;17.48;;;;;;;;;;5073334;28;20221;-74
2024/03/06 07:07:45;;;;;;;39.05;19.85;;;;;;;;;;5073248;28;20617;-74
2024/03/06 07:10:14;;;;;;;27.85;19.60;;;;;;;;;;5073056;28;20221;-75
2024/03/06 07:12:41;;;;;;;26.17;18.95;;;;;;;;;;5073055;28;20607;-74
2024/03/06 07:15:09;;;;;;;23.50;17.27;;;;;;;;;;5073211;28;20200;-74
2024/03/06 07:17:36;;;;;;;28.48;20.30;;;;;;;;;;5073238;28;20192;-74
2024/03/06 07:20:05;;;;;;;30.50;19.10;;;;;;;;;;5072999;28;20288;-74
2024/03/06 07:22:33;;;;;;;26.27;17.73;;;;;;;;;;5073113;28;20204;-74
2024/03/06 07:25:00;;;;;;;25.10;16.48;;;;;;;;;;5072911;28;20549;-74
2024/03/06 07:27:28;;;;;;;25.15;16.35;;;;;;;;;;5072792;28;20595;-74
2024/03/06 07:29:55;;;;;;;22.85;16.17;;;;;;;;;;5072823;28;20220;-74
2024/03/06 07:32:23;;;;;;;24.10;17.73;;;;;;;;;;5072814;28;20189;-74
2024/03/06 07:34:50;;;;;;;21.85;15.40;;;;;;;;;;5072905;28;20193;-74
2024/03/06 07:37:17;;;;;;;28.55;18.00;;;;;;;;;;5072736;28;20733;-74
2024/03/06 07:39:44;;;;;;;24.52;16.25;;;;;;;;;;5072402;28;20229;-74
2024/03/06 07:42:12;;;;;;;23.40;17.35;;;;;;;;;;5072536;28;20262;-74
2024/03/06 07:44:39;;;;;;;24.10;17.08;;;;;;;;;;5072896;28;20189;-74
2024/03/06 07:47:07;;;;;;;30.40;17.33;;;;;;;;;;5072457;28;20648;-74
2024/03/06 07:49:35;;;;;;;27.25;16.50;;;;;;;;;;5072630;28;20213;-74
2024/03/06 07:52:03;;;;;;;22.98;15.80;;;;;;;;;;5072601;28;20708;-74
2024/03/06 07:54:30;;;;;;;25.48;16.75;;;;;;;;;;5072499;28;20239;-73
2024/03/06 07:56:57;;;;;;;25.40;18.90;;;;;;;;;;5072553;28;20716;-72
2024/03/06 07:59:24;;;;;;;24.38;17.23;;;;;;;;;;5072496;28;20640;-72
2024/03/06 08:01:52;;;;;;;27.40;19.50;;;;;;;;;;5072667;28;20228;-72
2024/03/06 08:04:19;;;;;;;25.23;19.00;;;;;;;;;;5072495;28;20224;-73
2024/03/06 08:06:47;;;;;;;25.13;17.77;;;;;;;;;;5072391;28;20190;-75
2024/03/06 08:09:16;;;;;;;24.02;16.55;;;;;;;;;;5072110;28;20640;-70
2024/03/06 08:11:43;;;;;;;26.63;17.15;;;;;;;;;;5072143;28;20193;-66
2024/03/06 08:14:10;;;;;;;27.90;18.30;;;;;;;;;;5072471;28;20189;-66
2024/03/06 08:16:38;;;;;;;20.08;15.95;;;;;;;;;;5072142;28;20189;-69
2024/03/06 08:19:05;;;;;;;23.13;16.08;;;;;;;;;;5072317;28;20201;-66
2024/03/06 08:21:32;;;;;;;23.90;18.38;;;;;;;;;;5072153;28;20276;-70
2024/03/06 08:24:01;;;;;;;24.85;17.48;;;;;;;;;;5072203;28;20736;-71
2024/03/06 08:26:28;;;;;;;19.80;15.90;;;;;;;;;;5072182;28;20733;-68
2024/03/06 08:28:55;;;;;;;22.60;16.88;;;;;;;;;;5072175;28;20638;-68
2024/03/06 08:31:22;;;;;;;23.50;17.38;;;;;;;;;;5072284;28;20628;-72
2024/03/06 08:33:49;;;;;;;20.55;15.77;;;;;;;;;;5072212;28;20546;-69
2024/03/06 08:36:16;;;;;;;26.35;16.42;;;;;;;;;;5072060;28;20280;-69
2024/03/06 08:38:43;;;;;;;22.80;18.33;;;;;;;;;;5072237;28;20297;-67
2024/03/06 08:41:11;;;;;;;22.40;16.52;;;;;;;;;;5072203;28;20196;-67
2024/03/06 08:43:38;;;;;;;23.73;17.42;;;;;;;;;;5072182;28;20199;-70
2024/03/06 08:46:05;;;;;;;24.75;18.90;;;;;;;;;;5071702;28;20236;-77
2024/03/06 08:48:32;;;;;;;24.33;18.63;;;;;;;;;;5072189;28;20213;-66
2024/03/06 08:50:59;;;;;;;22.67;17.33;;;;;;;;;;5072767;28;20243;-67
2024/03/06 08:53:26;;;;;;;24.80;18.53;;;;;;;;;;5075067;28;20284;-67
2024/03/06 08:55:53;;;;;;;24.17;17.58;;;;;;;;;;5074788;28;20486;-68
2024/03/06 08:58:21;;;;;;;26.60;17.90;;;;;;;;;;5075562;28;20189;-67
2024/03/06 09:00:48;;;;;;;22.75;17.52;;;;;;;;;;5075126;28;20221;-67
2024/03/06 09:03:16;;;;;;;20.20;15.80;;;;;;;;;;5075594;28;20193;-67
2024/03/06 09:05:43;;;;;;;31.27;22.80;;;;;;;;;;5075181;28;20193;-67
2024/03/06 09:08:11;;;;;;;25.65;19.30;;;;;;;;;;5075081;28;20526;-67
2024/03/06 09:10:38;;;;;;;19.13;16.80;;;;;;;;;;5072141;28;20205;-67
2024/03/06 09:13:05;;;;;;;21.00;17.17;;;;;;;;;;5074915;28;20516;-68
2024/03/06 09:15:33;;;;;;;23.97;18.70;;;;;;;;;;5074836;28;20855;-68
2024/03/06 09:18:00;;;;;;;22.33;17.98;;;;;;;;;;5055044;28;21007;-68
2024/03/06 09:20:27;;;;;;;20.00;15.52;;;;;;;;;;5055306;28;20197;-68
2024/03/06 09:22:56;;;;;;;19.97;16.60;;;;;;;;;;5055129;28;20293;-67
2024/03/06 09:25:23;;;;;;;19.17;15.57;;;;;;;;;;5055127;28;20816;-67
2024/03/06 09:27:50;;;;;;;20.57;16.43;;;;;;;;;;5055071;28;20540;-68
2024/03/06 09:30:17;;;;;;;18.80;16.10;;;;;;;;;;5054845;28;20567;-68
2024/03/06 09:32:45;;;;;;;20.17;16.00;;;;;;;;;;5054860;28;20546;-68
2024/03/06 09:35:14;;;;;;;19.57;17.10;;;;;;;;;;5055108;28;20879;-68
2024/03/06 09:37:42;;;;;;;20.30;15.37;;;;;;;;;;5054866;28;20448;-68
2024/03/06 09:40:10;;;;;;;16.97;14.07;;;;;;;;;;5054729;28;20986;-67
2024/03/06 09:42:37;;;;;;;17.93;15.70;;;;;;;;;;5054757;28;20476;-67
2024/03/06 09:45:05;;;;;;;18.27;15.77;;;;;;;;;;5054539;28;20468;-69
2024/03/06 09:47:33;;;;;;;18.40;13.57;;;;;;;;;;5054785;28;20448;-68
2024/03/06 09:50:03;;;;;;;13.80;11.67;;;;;;;;;;5054690;28;20502;-68
2024/03/06 09:52:31;;;;;;;15.73;10.27;;;;;;;;;;5054597;28;20547;-67
2024/03/06 09:54:59;;;;;;;12.70;10.10;;;;;;;;;;5054409;28;20535;-67
2024/03/06 09:57:26;;;;;;;14.37;11.10;;;;;;;;;;5054240;28;20541;-67
2024/03/06 09:59:53;;;;;;;18.03;11.03;;;;;;;;;;5054527;28;20804;-68
2024/03/06 10:02:26;;;;;;;15.23;11.17;;;;;;;;;;5054211;28;20540;-66
2024/03/06 10:04:53;;;;;;;14.73;12.27;;;;;;;;;;5064564;28;20447;-68
2024/03/06 10:07:21;;;;;;;12.40;11.10;;;;;;;;;;5073931;28;20450;-75
2024/03/06 10:09:48;;;;;;;16.43;11.43;;;;;;;;;;5074187;28;20618;-76
2024/03/06 10:12:18;;;;;;;17.07;13.27;;;;;;;;;;5073929;28;21131;-68
2024/03/06 10:14:50;;;;;;;13.07;11.70;;;;;;;;;;5074075;28;20534;-77
2024/03/06 10:17:22;;;;;;;13.93;11.07;;;;;;;;;;5073888;28;20439;-67
2024/03/06 10:19:51;;;;;;;14.93;11.80;;;;;;;;;;5073908;28;20447;-66
2024/03/06 10:22:18;;;;;;;14.90;12.40;;;;;;;;;;5073883;28;20447;-72
2024/03/06 10:24:47;;;;;;;17.60;11.10;;;;;;;;;;5073838;28;20543;-71
2024/03/06 10:27:16;;;;;;;10.47;8.63;;;;;;;;;;5073983;28;20448;-73
2024/03/06 10:29:43;;;;;;;8.97;7.90;;;;;;;;;;5074135;28;20447;-74
2024/03/06 10:32:11;;;;;;;10.30;9.20;;;;;;;;;;5073632;28;20533;-73
2024/03/06 10:34:40;;;;;;;10.03;9.03;;;;;;;;;;5073535;28;20447;-67
2024/03/06 10:37:07;;;;;;;11.00;9.67;;;;;;;;;;5073406;28;20526;-70
2024/03/06 10:39:36;;;;;;;11.73;10.47;;;;;;;;;;5073226;28;20479;-69
2024/03/06 10:42:05;;;;;;;12.70;10.20;;;;;;;;;;5083637;28;20451;-72
2024/03/06 10:44:33;;;;;;;11.30;9.73;;;;;;;;;;5079971;28;20443;-67
2024/03/06 10:47:01;;;;;;;10.70;9.60;;;;;;;;;;5083964;28;20523;-72
2024/03/06 10:49:29;;;;;;;11.43;10.23;;;;;;;;;;5085543;28;20530;-72
2024/03/06 10:51:59;;;;;;;11.43;9.60;;;;;;;;;;5093433;28;20514;-67
2024/03/06 10:54:28;;;;;;;10.60;9.60;;;;;;;;;;5087882;28;20918;-69
2024/03/06 10:56:56;;;;;;;12.60;9.50;;;;;;;;;;5076838;28;20436;-75
2024/03/06 10:59:27;;;;;;;10.10;8.90;;;;;;;;;;5083040;28;20449;-77
2024/03/06 11:01:55;;;;;;;9.73;8.73;;;;;;;;;;5083900;28;20600;-71
2024/03/06 11:04:22;;;;;;;8.17;7.33;;;;;;;;;;5082972;28;20501;-70
2024/03/06 11:06:49;;;;;;;8.73;7.70;;;;;;;;;;5081933;28;20874;-72
2024/03/06 11:09:16;;;;;;;10.73;7.80;;;;;;;;;;5079215;28;20534;-69
2024/03/06 11:11:51;;;;;;;10.67;8.13;;;;;;;;;;5082805;28;21103;-64
2024/03/06 11:14:18;;;;;;;8.27;7.47;;;;;;;;;;5078966;28;20443;-62
2024/03/06 11:17:00;;;;;;;8.70;7.87;;;;;;;;;;5082459;28;20445;-62
2024/03/06 11:19:27;;;;;;;7.70;7.00;;;;;;;;;;5081798;28;20448;-62
2024/03/06 11:21:54;;;;;;;10.83;7.50;;;;;;;;;;5081664;28;20459;-62
2024/03/06 11:24:21;;;;;;;8.90;7.60;;;;;;;;;;5082841;28;20443;-63
2024/03/06 11:26:49;;;;;;;6.87;6.17;;;;;;;;;;5077985;28;20497;-63
2024/03/06 11:29:20;;;;;;;6.80;6.20;;;;;;;;;;5072665;28;20978;-75
2024/03/06 11:32:02;;;;;;;6.13;5.60;;;;;;;;;;5073337;28;20570;-73
2024/03/06 11:34:30;;;;;;;7.53;6.20;;;;;;;;;;5072950;28;20490;-67
2024/03/06 11:36:58;;;;;;;9.03;7.57;;;;;;;;;;5072729;28;20930;-70
2024/03/06 11:39:25;;;;;;;8.37;7.53;;;;;;;;;;5072682;28;20475;-68
2024/03/06 11:41:52;;;;;;;9.37;7.00;;;;;;;;;;5072577;28;20873;-73
2024/03/06 11:44:21;;;;;;;9.80;7.33;;;;;;;;;;5072741;28;20534;-68
2024/03/06 11:46:49;;;;;;;8.70;7.33;;;;;;;;;;5073006;28;20443;-67
2024/03/06 11:49:20;;;;;;;6.77;6.10;;;;;;;;;;5072578;28;20444;-67
2024/03/06 11:51:48;;;;;;;9.00;7.87;;;;;;;;;;5072502;28;20493;-67
2024/03/06 11:54:15;;;;;;;9.67;8.63;;;;;;;;;;5072465;28;20479;-68
2024/03/06 11:56:42;;;;;;;8.93;7.37;;;;;;;;;;5072930;28;20518;-67
2024/03/06 11:59:09;;;;;;;9.87;7.53;;;;;;;;;;5072626;28;20447;-66
2024/03/06 12:01:37;;;;;;;9.63;8.63;;;;;;;;;;5072623;28;20446;-67
2024/03/06 12:04:04;;;;;;;12.80;8.20;;;;;;;;;;5072576;28;20452;-65
2024/03/06 12:06:34;;;;;;;8.53;7.40;;;;;;;;;;5072488;28;20866;-64
2024/03/06 12:09:01;;;;;;;8.00;7.20;;;;;;;;;;5072289;28;20538;-67
2024/03/06 12:11:28;;;;;;;8.77;7.87;;;;;;;;;;5072269;28;20471;-67
2024/03/06 12:13:55;;;;;;;8.83;7.73;;;;;;;;;;5072456;28;20470;-64
2024/03/06 12:16:22;;;;;;;12.10;8.03;;;;;;;;;;5072300;28;21021;-68
2024/03/06 12:18:57;;;;;;;9.50;7.63;;;;;;;;;;5072350;28;20880;-69
2024/03/06 12:21:24;;;;;;;11.20;9.23;;;;;;;;;;5072227;28;20450;-66
2024/03/06 12:23:52;;;;;;;9.27;8.37;;;;;;;;;;5072259;28;20443;-70
2024/03/06 12:26:24;;;;;;;10.20;8.17;;;;;;;;;;5073388;28;20475;-69
2024/03/06 12:28:50;;;;;;;9.80;8.60;;;;;;;;;;5075999;28;20538;-72
2024/03/06 12:31:17;;;;;;;9.80;8.80;;;;;;;;;;5075876;28;20467;-71
2024/03/06 12:33:44;;;;;;;9.13;7.87;;;;;;;;;;5075989;28;20501;-69
2024/03/06 12:36:11;;;;;;;8.70;7.73;;;;;;;;;;5076155;28;20538;-69
2024/03/06 12:38:39;;;;;;;9.13;7.80;;;;;;;;;;5076125;28;20950;-63
2024/03/06 12:41:07;;;;;;;10.20;8.80;;;;;;;;;;5075840;28;20530;-66
2024/03/06 12:43:34;;;;;;;10.73;7.97;;;;;;;;;;5075887;28;20534;-66
2024/03/06 12:46:02;;;;;;;9.10;8.30;;;;;;;;;;5075637;28;20849;-65
2024/03/06 12:48:30;;;;;;;8.87;7.63;;;;;;;;;;5075651;28;20462;-62
2024/03/06 12:51:04;;;;;;;9.00;8.10;;;;;;;;;;5075467;28;20977;-66
2024/03/06 12:53:31;;;;;;;8.53;7.60;;;;;;;;;;5075546;28;21013;-67
2024/03/06 12:55:58;;;;;;;11.97;9.17;;;;;;;;;;5075656;28;20466;-65
2024/03/06 12:58:26;;;;;;;8.83;8.00;;;;;;;;;;5075368;28;20443;-65
2024/03/06 13:00:54;;;;;;;11.63;9.47;;;;;;;;;;5075443;28;20887;-66
2024/03/06 13:03:21;;;;;;;9.87;8.90;;;;;;;;;;5075508;28;20450;-64
2024/03/06 13:05:48;;;;;;;9.00;8.10;;;;;;;;;;5075531;28;20534;-73
2024/03/06 13:08:16;;;;;;;10.20;9.10;;;;;;;;;;5075457;28;20484;-67
2024/03/06 13:10:42;;;;;;;10.60;8.80;;;;;;;;;;5075361;28;20452;-65
2024/03/06 13:13:09;;;;;;;9.77;8.77;;;;;;;;;;5075282;28;20486;-66
2024/03/06 13:15:38;;;;;;;12.30;9.60;;;;;;;;;;5075217;28;20534;-68
2024/03/06 13:18:05;;;;;;;11.13;10.03;;;;;;;;;;5075357;28;20485;-64
2024/03/06 13:20:32;;;;;;;12.73;10.00;;;;;;;;;;5075192;28;20526;-64
2024/03/06 13:22:59;;;;;;;12.97;10.17;;;;;;;;;;5075102;28;20538;-63
2024/03/06 13:25:26;;;;;;;13.80;10.70;;;;;;;;;;5075357;28;20621;-64
2024/03/06 13:27:54;;;;;;;12.20;9.80;;;;;;;;;;5073952;28;20443;-64
2024/03/06 13:30:21;;;;;;;11.73;10.03;;;;;;;;;;5075205;28;20542;-64
2024/03/06 13:32:49;;;;;;;12.60;10.13;;;;;;;;;;5075022;28;20574;-64
2024/03/06 13:35:16;;;;;;;14.17;10.77;;;;;;;;;;5074967;28;20454;-64
2024/03/06 13:37:43;;;;;;;13.23;10.57;;;;;;;;;;5074424;28;20526;-64
2024/03/06 13:40:13;;;;;;;12.57;8.97;;;;;;;;;;5074723;28;20558;-64
2024/03/06 13:42:40;;;;;;;14.53;9.50;;;;;;;;;;5074547;28;20501;-64
2024/03/06 13:45:11;;;;;;;14.17;9.87;;;;;;;;;;5074738;28;20813;-64
2024/03/06 13:47:39;;;;;;;13.67;9.10;;;;;;;;;;5074657;28;20443;-64
2024/03/06 13:50:09;;;;;;;11.33;10.03;;;;;;;;;;5074001;28;20841;-64
2024/03/06 13:52:36;;;;;;;10.13;9.13;;;;;;;;;;5073904;28;20788;-64
2024/03/06 13:55:04;;;;;;;10.67;8.60;;;;;;;;;;5074171;28;20439;-64
2024/03/06 13:57:33;;;;;;;10.80;9.70;;;;;;;;;;5074880;28;20439;-64
2024/03/06 14:00:00;;;;;;;10.30;9.30;;;;;;;;;;5074482;28;20443;-64
2024/03/06 14:02:27;;;;;;;14.73;11.03;;;;;;;;;;5074447;28;20439;-64
2024/03/06 14:04:54;;;;;;;13.70;9.57;;;;;;;;;;5074414;28;20526;-64
2024/03/06 14:07:22;;;;;;;10.60;9.50;;;;;;;;;;5074472;28;20562;-64
2024/03/06 14:09:50;;;;;;;14.53;9.40;;;;;;;;;;5074482;28;20447;-64
2024/03/06 14:12:17;;;;;;;11.03;9.07;;;;;;;;;;5074256;28;20471;-64
2024/03/06 14:14:44;;;;;;;13.50;10.10;;;;;;;;;;5074111;28;20476;-64
2024/03/06 14:17:12;;;;;;;11.37;10.17;;;;;;;;;;5073898;28;20444;-71
2024/03/06 14:19:39;;;;;;;15.00;10.90;;;;;;;;;;5074032;28;20853;-69
2024/03/06 14:22:06;;;;;;;12.40;10.30;;;;;;;;;;5073864;28;20451;-71